createdAt,value
2023-01-03T00:01:15.249Z,1.13
2023-01-03T00:03:42.140Z,1.23
2023-01-03T00:06:24.064Z,0.95
2023-01-03T00:08:51.445Z,0.93
2023-01-03T00:11:42.404Z,1.45
2023-01-03T00:14:10.031Z,1.00
2023-01-03T00:16:37.302Z,1.10
2023-01-03T00:19:15.227Z,1.25
2023-01-03T00:21:42.873Z,1.27
2023-01-03T00:24:10.119Z,1.42
2023-01-03T00:26:38.072Z,1.15
2023-01-03T00:29:04.638Z,1.27
2023-01-03T00:31:31.020Z,1.02
2023-01-03T00:33:57.677Z,1.02
2023-01-03T00:36:24.046Z,1.10
2023-01-03T00:38:50.376Z,1.27
2023-01-03T00:41:19.094Z,1.08
2023-01-03T00:43:48.389Z,1.02
2023-01-03T00:46:18.088Z,1.20
2023-01-03T00:48:45.190Z,1.10
2023-01-03T00:51:21.946Z,1.58
2023-01-03T00:53:51.195Z,1.20
2023-01-03T00:56:20.263Z,1.15
2023-01-03T00:58:48.137Z,1.17
2023-01-03T01:01:20.460Z,1.05
2023-01-03T01:03:59.900Z,0.90
2023-01-03T01:06:32.685Z,0.90
2023-01-03T01:09:01.892Z,0.90
2023-01-03T01:11:29.368Z,0.93
2023-01-03T01:13:55.940Z,0.95
2023-01-03T01:16:25.767Z,1.00
2023-01-03T01:18:56.080Z,1.10
2023-01-03T01:21:30.285Z,1.00
2023-01-03T01:23:59.031Z,1.00
2023-01-03T01:26:26.183Z,1.05
2023-01-03T01:28:54.515Z,0.93
2023-01-03T01:31:23.597Z,1.17
2023-01-03T01:33:51.280Z,0.85
2023-01-03T01:36:22.425Z,1.15
2023-01-03T01:38:54.767Z,1.30
2023-01-03T01:41:42.086Z,1.17
2023-01-03T01:44:46.903Z,0.85
2023-01-03T01:47:18.751Z,1.10
2023-01-03T01:49:48.381Z,1.02
2023-01-03T01:52:18.617Z,1.13
2023-01-03T01:54:46.071Z,1.00
2023-01-03T01:57:16.433Z,1.00
2023-01-03T01:59:43.416Z,1.10
2023-01-03T02:02:11.345Z,1.45
2023-01-03T02:04:39.627Z,1.00
2023-01-03T02:07:07.842Z,0.80
2023-01-03T02:09:35.750Z,0.57
2023-01-03T02:12:36.824Z,0.68
2023-01-03T02:15:29.106Z,0.93
2023-01-03T02:18:13.846Z,0.70
2023-01-03T02:21:21.403Z,0.95
2023-01-03T02:24:07.381Z,0.70
2023-01-03T02:27:01.106Z,0.85
2023-01-03T02:29:49.787Z,0.98
2023-01-03T02:32:22.078Z,0.80
2023-01-03T02:35:33.209Z,0.88
2023-01-03T02:38:28.253Z,0.93
2023-01-03T02:41:13.105Z,0.98
2023-01-03T02:44:21.420Z,0.82
2023-01-03T02:46:54.159Z,0.60
2023-01-03T02:49:24.489Z,0.90
2023-01-03T02:51:55.161Z,1.00
2023-01-03T02:54:28.035Z,1.00
2023-01-03T02:57:00.667Z,0.95
2023-01-03T02:59:37.029Z,1.00
2023-01-03T03:02:07.135Z,1.00
2023-01-03T03:04:37.285Z,1.00
2023-01-03T03:07:11.132Z,1.27
2023-01-03T03:09:57.447Z,1.20
2023-01-03T03:12:47.165Z,1.30
2023-01-03T03:15:15.750Z,1.05
2023-01-03T03:17:42.843Z,1.10
2023-01-03T03:20:33.532Z,1.20
2023-01-03T03:23:25.129Z,1.10
2023-01-03T03:25:55.745Z,1.25
2023-01-03T03:28:35.246Z,1.13
2023-01-03T03:31:28.119Z,1.08
2023-01-03T03:34:10.104Z,1.20
2023-01-03T03:37:03.114Z,0.90
2023-01-03T03:39:50.618Z,0.93
2023-01-03T03:42:44.984Z,1.40
2023-01-03T03:45:18.417Z,1.20
2023-01-03T03:48:03.679Z,1.73
2023-01-03T03:53:02.195Z,1.08
2023-01-03T03:55:42.147Z,1.35
2023-01-03T03:58:17.429Z,1.00
2023-01-03T04:00:47.768Z,1.05
2023-01-03T04:03:15.752Z,1.23
2023-01-03T04:05:56.132Z,1.00
2023-01-03T04:08:22.777Z,1.27
2023-01-03T04:10:49.650Z,1.25
2023-01-03T04:13:16.573Z,1.33
2023-01-03T04:15:42.884Z,1.10
2023-01-03T04:18:09.614Z,1.30
2023-01-03T04:20:35.939Z,1.20
2023-01-03T04:23:02.332Z,0.98
2023-01-03T04:25:28.985Z,1.13
2023-01-03T04:27:55.321Z,1.30
2023-01-03T04:30:22.425Z,1.10
2023-01-03T04:32:48.768Z,1.55
2023-01-03T04:35:15.202Z,1.02
2023-01-03T04:37:42.024Z,1.17
2023-01-03T04:40:09.006Z,1.08
2023-01-03T04:42:54.587Z,1.20
2023-01-03T04:45:20.916Z,1.17
2023-01-03T04:47:47.251Z,1.23
2023-01-03T04:50:14.147Z,1.20
2023-01-03T04:52:40.464Z,1.20
2023-01-03T04:55:09.582Z,1.58
2023-01-03T04:57:36.750Z,1.00
2023-01-03T05:00:04.032Z,0.90
2023-01-03T05:02:30.443Z,1.15
2023-01-03T05:04:57.317Z,1.38
2023-01-03T05:07:23.634Z,1.00
2023-01-03T05:09:50.321Z,0.98
2023-01-03T05:12:16.650Z,0.70
2023-01-03T05:14:42.980Z,0.95
2023-01-03T05:17:09.932Z,1.00
2023-01-03T05:19:56.715Z,1.00
2023-01-03T05:22:41.517Z,1.25
2023-01-03T05:25:28.677Z,1.13
2023-01-03T05:27:56.310Z,1.00
2023-01-03T05:30:23.638Z,1.08
2023-01-03T05:32:49.976Z,0.90
2023-01-03T05:35:16.336Z,1.20
2023-01-03T05:37:42.987Z,1.00
2023-01-03T05:40:09.969Z,1.00
2023-01-03T05:42:36.383Z,1.10
2023-01-03T05:45:02.902Z,1.00
2023-01-03T05:47:29.648Z,1.17
2023-01-03T05:49:55.995Z,1.13
2023-01-03T05:52:22.494Z,1.30
2023-01-03T05:54:49.217Z,1.10
2023-01-03T05:57:15.557Z,0.80
2023-01-03T05:59:41.887Z,1.38
2023-01-03T06:02:08.603Z,1.10
2023-01-03T06:04:35.131Z,1.17
2023-01-03T06:07:01.490Z,1.35
2023-01-03T06:09:28.429Z,0.75
2023-01-03T06:11:54.762Z,0.82
2023-01-03T06:14:21.161Z,0.82
2023-01-03T06:17:06.633Z,0.88
2023-01-03T06:19:33.060Z,1.30
2023-01-03T06:21:59.378Z,1.00
2023-01-03T06:24:26.104Z,1.45
2023-01-03T06:26:52.537Z,1.00
2023-01-03T06:29:18.863Z,1.45
2023-01-03T06:31:45.568Z,1.23
2023-01-03T06:34:12.440Z,0.90
2023-01-03T06:36:38.866Z,1.02
2023-01-03T06:39:05.849Z,1.10
2023-01-03T06:41:32.224Z,1.10
2023-01-03T06:43:58.548Z,1.10
2023-01-03T06:46:43.986Z,0.93
2023-01-03T06:49:36.426Z,1.00
2023-01-03T06:52:24.593Z,1.10
2023-01-03T06:54:50.975Z,0.98
2023-01-03T06:57:26.024Z,1.02
2023-01-03T06:59:53.792Z,1.00
2023-01-03T07:02:20.246Z,1.02
2023-01-03T07:04:46.701Z,0.95
2023-01-03T07:07:13.471Z,0.75
2023-01-03T07:09:39.782Z,1.08
2023-01-03T07:12:25.303Z,0.98
2023-01-03T07:14:51.623Z,0.98
2023-01-03T07:17:17.982Z,1.35
2023-01-03T07:19:44.822Z,1.45
2023-01-03T07:22:11.167Z,1.00
2023-01-03T07:24:37.493Z,1.00
2023-01-03T07:27:04.133Z,1.15
2023-01-03T07:29:30.456Z,1.38
2023-01-03T07:31:58.922Z,1.20
2023-01-03T07:34:25.438Z,1.27
2023-01-03T07:36:51.831Z,1.17
2023-01-03T07:39:18.193Z,1.20
2023-01-03T07:42:03.390Z,1.15
2023-01-03T07:44:29.704Z,0.93
2023-01-03T07:46:56.093Z,1.38
2023-01-03T07:49:22.985Z,1.33
2023-01-03T07:51:49.321Z,1.33
2023-01-03T07:54:15.654Z,1.65
2023-01-03T07:56:42.403Z,1.30
2023-01-03T07:59:08.986Z,1.13
2023-01-03T08:01:35.445Z,1.38
2023-01-03T08:04:02.149Z,1.40
2023-01-03T08:06:28.469Z,1.35
2023-01-03T08:09:14.305Z,1.58
2023-01-03T08:11:59.063Z,1.67
2023-01-03T08:14:27.063Z,1.50
2023-01-03T08:16:56.744Z,1.40
2023-01-03T08:19:24.520Z,1.48
2023-01-03T08:21:52.015Z,1.30
2023-01-03T08:24:19.280Z,1.73
2023-01-03T08:26:45.719Z,1.60
2023-01-03T08:29:12.445Z,1.33
2023-01-03T08:31:43.780Z,1.60
2023-01-03T08:34:18.563Z,1.92
2023-01-03T08:36:52.281Z,2.67
2023-01-03T08:39:26.249Z,1.42
2023-01-03T08:41:58.840Z,2.10
2023-01-03T08:44:25.682Z,2.25
2023-01-03T08:46:55.008Z,1.98
2023-01-03T08:49:22.481Z,1.75
2023-01-03T08:51:48.895Z,1.50
2023-01-03T08:54:15.314Z,1.30
2023-01-03T08:56:42.320Z,1.50
2023-01-03T08:59:08.818Z,1.52
2023-01-03T09:01:35.747Z,1.05
2023-01-03T09:04:02.393Z,1.30
2023-01-03T09:06:28.810Z,1.15
2023-01-03T09:08:55.591Z,1.40
2023-01-03T09:11:21.977Z,1.35
2023-01-03T09:13:48.398Z,1.27
2023-01-03T09:16:17.170Z,1.20
2023-01-03T09:18:43.660Z,1.33
2023-01-03T09:21:10.088Z,1.40
2023-01-03T09:23:38.086Z,2.35
2023-01-03T09:26:05.310Z,2.35
2023-01-03T09:28:32.214Z,2.20
2023-01-03T09:30:58.710Z,2.72
2023-01-03T09:33:25.096Z,2.90
2023-01-03T09:35:53.075Z,2.67
2023-01-03T09:38:19.991Z,3.30
2023-01-03T09:40:47.976Z,3.10
2023-01-03T09:43:25.261Z,3.45
2023-01-03T09:45:55.160Z,3.50
2023-01-03T09:48:38.877Z,3.30
2023-01-03T09:51:30.980Z,3.00
2023-01-03T09:54:17.254Z,2.80
2023-01-03T09:57:02.520Z,3.53
2023-01-03T10:03:04.845Z,4.07
2023-01-03T10:05:50.412Z,3.35
2023-01-03T10:08:19.622Z,3.80
2023-01-03T10:11:23.506Z,3.10
2023-01-03T10:13:56.404Z,3.72
2023-01-03T10:16:57.855Z,2.95
2023-01-03T10:19:36.873Z,2.92
2023-01-03T10:22:13.983Z,3.47
2023-01-03T10:25:06.824Z,3.22
2023-01-03T10:27:36.023Z,3.35
2023-01-03T10:30:12.826Z,3.90
2023-01-03T10:32:55.688Z,2.88
2023-01-03T10:35:35.689Z,3.05
2023-01-03T10:38:02.977Z,3.13
2023-01-03T10:40:40.189Z,3.30
2023-01-03T10:43:14.061Z,3.47
2023-01-03T10:46:14.084Z,3.37
2023-01-03T10:49:17.461Z,3.13
2023-01-03T10:51:52.145Z,3.30
2023-01-03T10:54:19.140Z,3.13
2023-01-03T10:56:48.236Z,2.85
2023-01-03T10:59:30.402Z,3.20
2023-01-03T11:02:15.704Z,3.00
2023-01-03T11:04:44.312Z,3.17
2023-01-03T11:07:14.176Z,3.10
2023-01-03T11:09:52.056Z,3.25
2023-01-03T11:12:40.055Z,3.15
2023-01-03T11:15:38.328Z,3.22
2023-01-03T11:18:17.310Z,3.13
2023-01-03T11:20:57.863Z,3.15
2023-01-03T11:23:40.458Z,2.83
2023-01-03T11:26:25.960Z,2.60
2023-01-03T11:29:10.608Z,2.60
2023-01-03T11:31:55.920Z,2.80
2023-01-03T11:35:25.197Z,2.67
2023-01-03T11:38:13.881Z,2.35
2023-01-03T11:41:12.797Z,2.30
2023-01-03T11:44:16.557Z,2.72
2023-01-03T11:46:43.597Z,2.45
2023-01-03T11:49:17.290Z,2.50
2023-01-03T11:52:14.624Z,2.53
2023-01-03T11:55:22.306Z,2.50
2023-01-03T11:57:56.724Z,3.08
2023-01-03T12:00:45.114Z,3.40
2023-01-03T12:03:21.693Z,3.60
2023-01-03T12:06:00.130Z,3.03
2023-01-03T12:08:55.433Z,3.55
2023-01-03T12:11:35.357Z,3.08
2023-01-03T12:14:05.416Z,3.35
2023-01-03T12:16:42.525Z,2.95
2023-01-03T12:19:33.453Z,3.00
2023-01-03T12:22:36.583Z,3.17
2023-01-03T12:25:33.122Z,2.95
2023-01-03T12:28:11.654Z,3.47
2023-01-03T12:30:44.688Z,3.55
2023-01-03T12:33:17.139Z,3.40
2023-01-03T12:36:37.515Z,3.45
2023-01-03T12:39:43.760Z,3.20
2023-01-03T12:42:29.027Z,3.40
2023-01-03T12:47:40.540Z,3.85
2023-01-03T12:50:13.468Z,3.97
2023-01-03T12:52:42.323Z,3.83
2023-01-03T12:55:47.825Z,3.97
2023-01-03T12:58:39.784Z,3.53
2023-01-03T13:01:15.989Z,4.60
2023-01-03T13:03:49.687Z,4.50
2023-01-03T13:06:39.315Z,4.22
2023-01-03T13:09:18.097Z,4.05
2023-01-03T13:11:55.953Z,3.47
2023-01-03T13:14:29.569Z,4.88
2023-01-03T13:17:04.130Z,4.68
2023-01-03T13:19:37.012Z,5.00
2023-01-03T13:22:18.458Z,4.45
2023-01-03T13:24:52.676Z,4.07
2023-01-03T13:27:19.465Z,3.75
2023-01-03T13:29:48.580Z,4.18
2023-01-03T13:32:21.442Z,3.50
2023-01-03T13:34:53.772Z,3.03
2023-01-03T13:37:25.883Z,3.55
2023-01-03T13:39:52.216Z,3.15
2023-01-03T13:42:39.704Z,5.10
2023-01-03T13:45:15.535Z,3.38
2023-01-03T13:47:43.272Z,3.95
2023-01-03T13:50:33.304Z,3.78
2023-01-03T13:53:11.758Z,4.15
2023-01-03T13:55:54.303Z,4.22
2023-01-03T13:58:24.104Z,3.95
2023-01-03T14:01:06.073Z,3.28
2023-01-03T14:03:41.751Z,3.75
2023-01-03T14:06:11.517Z,3.55
2023-01-03T14:08:40.738Z,5.43
2023-01-03T14:11:29.292Z,4.25
2023-01-03T14:14:07.232Z,3.58
2023-01-03T14:16:51.947Z,3.42
2023-01-03T14:19:40.595Z,3.70
2023-01-03T14:22:28.023Z,4.80
2023-01-03T14:24:57.590Z,3.20
2023-01-03T14:27:40.933Z,3.20
2023-01-03T14:30:20.906Z,3.58
2023-01-03T14:32:48.325Z,3.13
2023-01-03T14:35:39.688Z,3.35
2023-01-03T14:38:21.448Z,3.55
2023-01-03T14:40:48.340Z,3.30
2023-01-03T14:43:21.003Z,3.42
2023-01-03T14:45:56.995Z,3.60
2023-01-03T14:48:24.776Z,4.13
2023-01-03T14:50:53.110Z,3.30
2023-01-03T14:53:20.274Z,3.35
2023-01-03T14:55:53.392Z,3.20
2023-01-03T14:58:35.657Z,3.78
2023-01-03T15:01:05.430Z,3.50
2023-01-03T15:03:36.839Z,4.10
2023-01-03T15:06:22.422Z,3.80
2023-01-03T15:08:52.086Z,3.75
2023-01-03T15:11:56.672Z,4.07
2023-01-03T15:14:25.986Z,3.58
2023-01-03T15:17:02.074Z,3.63
2023-01-03T15:19:30.604Z,3.70
2023-01-03T15:22:20.988Z,3.75
2023-01-03T15:24:50.898Z,3.70
2023-01-03T15:27:42.376Z,3.95
2023-01-03T15:30:20.798Z,3.28
2023-01-03T15:33:05.420Z,3.38
2023-01-03T15:35:31.766Z,3.22
2023-01-03T15:37:59.920Z,4.53
2023-01-03T15:40:26.814Z,4.00
2023-01-03T15:43:11.733Z,2.83
2023-01-03T15:45:40.962Z,2.75
2023-01-03T15:48:14.473Z,3.00
2023-01-03T15:50:52.329Z,3.25
2023-01-03T15:53:27.003Z,3.28
2023-01-03T15:56:28.579Z,2.65
2023-01-03T15:58:56.076Z,2.97
2023-01-03T16:01:24.886Z,2.78
2023-01-03T16:03:52.606Z,3.13
2023-01-03T16:06:19.138Z,3.05
2023-01-03T16:08:45.970Z,2.53
2023-01-03T16:11:19.570Z,2.72
2023-01-03T16:13:55.216Z,3.08
2023-01-03T16:16:27.266Z,3.17
2023-01-03T16:18:54.956Z,3.13
2023-01-03T16:21:22.906Z,3.38
2023-01-03T16:23:49.718Z,3.50
2023-01-03T16:26:16.588Z,2.55
2023-01-03T16:28:43.233Z,3.28
2023-01-03T16:31:40.884Z,3.38
2023-01-03T16:34:26.378Z,3.10
2023-01-03T16:36:56.900Z,3.28
2023-01-03T16:39:25.268Z,3.13
2023-01-03T16:42:14.069Z,2.78
2023-01-03T16:44:49.448Z,3.15
2023-01-03T16:47:24.352Z,2.55
2023-01-03T16:52:28.650Z,2.53
2023-01-03T16:54:55.240Z,3.50
2023-01-03T16:57:22.537Z,2.88
2023-01-03T16:59:49.264Z,2.75
2023-01-03T17:02:15.758Z,2.55
2023-01-03T17:04:42.898Z,2.83
2023-01-03T17:07:19.209Z,2.40
2023-01-03T17:09:48.255Z,2.55
2023-01-03T17:12:17.344Z,2.85
2023-01-03T17:14:44.625Z,3.30
2023-01-03T17:17:22.810Z,3.47
2023-01-03T17:20:06.510Z,2.50
2023-01-03T17:22:33.267Z,3.38
2023-01-03T17:24:59.657Z,3.80
2023-01-03T17:27:31.864Z,4.90
2023-01-03T17:30:06.614Z,4.05
2023-01-03T17:32:33.820Z,3.70
2023-01-03T17:35:00.249Z,4.05
2023-01-03T17:37:26.916Z,3.50
2023-01-03T17:39:56.925Z,4.53
2023-01-03T17:42:25.565Z,4.65
2023-01-03T17:45:11.037Z,4.05
2023-01-03T17:48:02.334Z,3.92
2023-01-03T17:50:31.055Z,4.13
2023-01-03T17:52:58.923Z,3.78
2023-01-03T17:55:28.587Z,3.15
2023-01-03T17:57:56.998Z,3.22
2023-01-03T18:00:26.399Z,3.72
2023-01-03T18:02:54.548Z,3.42
2023-01-03T18:05:27.837Z,3.33
2023-01-03T18:07:59.296Z,3.45
2023-01-03T18:10:45.609Z,3.33
2023-01-03T18:13:37.539Z,3.10
2023-01-03T18:16:04.958Z,3.50
2023-01-03T18:18:32.339Z,3.42
2023-01-03T18:20:59.051Z,3.20
2023-01-03T18:23:32.391Z,2.78
2023-01-03T18:26:03.271Z,3.45
2023-01-03T18:28:29.647Z,3.17
2023-01-03T18:30:56.473Z,3.47
2023-01-03T18:33:23.841Z,4.00
2023-01-03T18:35:52.513Z,4.07
2023-01-03T18:38:24.405Z,3.55
2023-01-03T18:40:51.479Z,3.95
2023-01-03T18:43:20.025Z,2.90
2023-01-03T18:45:46.821Z,2.83
2023-01-03T18:48:18.533Z,3.15
2023-01-03T18:50:50.593Z,2.95
2023-01-03T18:53:23.899Z,3.22
2023-01-03T18:55:50.465Z,3.65
2023-01-03T18:58:31.514Z,3.75
2023-01-03T19:00:58.422Z,3.70
2023-01-03T19:03:27.958Z,3.75
2023-01-03T19:05:55.338Z,4.50
2023-01-03T19:08:25.528Z,4.30
2023-01-03T19:10:53.065Z,4.43
2023-01-03T19:13:29.476Z,5.15
2023-01-03T19:15:56.841Z,4.30
2023-01-03T19:18:23.890Z,3.45
2023-01-03T19:20:50.698Z,4.18
2023-01-03T19:23:25.436Z,3.58
2023-01-03T19:25:52.381Z,4.57
2023-01-03T19:28:23.784Z,3.92
2023-01-03T19:30:51.053Z,4.75
2023-01-03T19:33:19.386Z,5.50
2023-01-03T19:35:45.985Z,5.40
2023-01-03T19:38:13.682Z,4.95
2023-01-03T19:40:43.200Z,5.05
2023-01-03T19:43:22.111Z,4.88
2023-01-03T19:45:49.322Z,5.78
2023-01-03T19:48:21.777Z,5.28
2023-01-03T19:50:49.117Z,5.68
2023-01-03T19:53:16.090Z,4.93
2023-01-03T19:55:46.030Z,5.50
2023-01-03T19:58:21.001Z,6.05
2023-01-03T20:03:27.857Z,6.68
2023-01-03T20:05:55.322Z,11.18
2023-01-03T20:08:22.481Z,11.63
2023-01-03T20:10:51.070Z,10.05
2023-01-03T20:13:20.781Z,9.05
2023-01-03T20:15:49.228Z,11.65
2023-01-03T20:18:36.434Z,9.65
2023-01-03T20:21:07.689Z,7.28
2023-01-03T20:23:44.262Z,7.82
2023-01-03T20:26:25.406Z,7.05
2023-01-03T20:28:56.015Z,5.88
2023-01-03T20:31:22.934Z,5.68
2023-01-03T20:33:49.684Z,5.30
2023-01-03T20:36:23.789Z,5.35
2023-01-03T20:38:54.387Z,6.60
2023-01-03T20:41:20.947Z,5.43
2023-01-03T20:43:49.817Z,5.55
2023-01-03T20:46:20.347Z,6.32
2023-01-03T20:48:55.082Z,6.22
2023-01-03T20:51:22.009Z,6.05
2023-01-03T20:53:54.141Z,6.50
2023-01-03T20:56:21.726Z,6.75
2023-01-03T20:58:48.216Z,6.75
2023-01-03T21:01:14.763Z,6.85
2023-01-03T21:03:41.847Z,5.75
2023-01-03T21:06:29.450Z,5.90
2023-01-03T21:08:58.236Z,5.38
2023-01-03T21:11:26.309Z,5.13
2023-01-03T21:13:53.600Z,6.65
2023-01-03T21:16:30.636Z,6.03
2023-01-03T21:19:03.005Z,6.28
2023-01-03T21:21:31.257Z,7.18
2023-01-03T21:23:57.948Z,5.65
2023-01-03T21:26:24.293Z,6.10
2023-01-03T21:28:50.608Z,7.63
2023-01-03T21:31:20.241Z,8.57
2023-01-03T21:33:48.105Z,8.23
2023-01-03T21:36:23.285Z,9.77
2023-01-03T21:38:50.841Z,8.23
2023-01-03T21:41:19.750Z,9.10
2023-01-03T21:43:46.200Z,8.98
2023-01-03T21:46:20.628Z,9.75
2023-01-03T21:48:47.179Z,9.05
2023-01-03T21:51:17.480Z,10.55
2023-01-03T21:53:52.089Z,10.38
2023-01-03T21:56:21.268Z,11.85
2023-01-03T21:58:48.863Z,11.50
2023-01-03T22:01:22.300Z,11.18
2023-01-03T22:04:10.881Z,13.10
2023-01-03T22:06:37.637Z,14.27
2023-01-03T22:09:06.021Z,11.48
2023-01-03T22:11:33.929Z,12.38
2023-01-03T22:14:00.845Z,12.85
2023-01-03T22:16:27.660Z,11.60
2023-01-03T22:18:54.082Z,12.25
2023-01-03T22:21:21.203Z,12.30
2023-01-03T22:23:47.608Z,12.70
2023-01-03T22:26:15.823Z,14.00
2023-01-03T22:28:44.501Z,12.23
2023-01-03T22:31:20.201Z,12.93
2023-01-03T22:33:47.648Z,12.32
2023-01-03T22:36:15.197Z,11.70
2023-01-03T22:38:42.394Z,11.23
2023-01-03T22:41:18.876Z,10.70
2023-01-03T22:43:46.299Z,9.95
2023-01-03T22:46:16.047Z,10.55
2023-01-03T22:48:43.561Z,9.63
2023-01-03T22:51:13.070Z,7.18
2023-01-03T22:53:41.918Z,9.85
2023-01-03T22:56:11.115Z,9.48
2023-01-03T22:58:38.482Z,9.18
2023-01-03T23:01:16.133Z,8.65
2023-01-03T23:03:44.726Z,10.27
2023-01-03T23:06:14.139Z,9.07
2023-01-03T23:08:42.106Z,9.27
2023-01-03T23:11:34.866Z,11.00
2023-01-03T23:14:08.126Z,8.73
2023-01-03T23:16:35.193Z,8.05
2023-01-03T23:19:02.578Z,8.52
2023-01-03T23:21:29.320Z,5.40
2023-01-03T23:23:56.314Z,7.75
2023-01-03T23:26:22.942Z,8.95
2023-01-03T23:28:49.288Z,7.65
2023-01-03T23:31:16.035Z,8.82
2023-01-03T23:33:42.392Z,6.30
2023-01-03T23:36:11.232Z,6.93
2023-01-03T23:38:38.069Z,7.22
2023-01-03T23:41:06.557Z,7.68
2023-01-03T23:43:33.922Z,8.70
2023-01-03T23:46:01.012Z,8.57
2023-01-03T23:48:27.705Z,6.60
2023-01-03T23:50:54.159Z,4.63
2023-01-03T23:53:20.874Z,4.30
2023-01-03T23:55:47.300Z,5.38
2023-01-03T23:58:13.611Z,4.30
